Time;durP1;ratioP1;P1;durP2;ratioP2;P2;SDS_P1;SDS_P2;PMS_P1;PMS_P2;Temp;Humidity;BMP_temperature;BMP_pressure;BME280_temperature;BME280_humidity;BME280_pressure;Samples;Min_cycle;Max_cycle;Signal;HPM_P1;HPM_P2
2024/02/23 00:01:47;;;;;;;;;;;256.80;2252.80;;;;;;5102189;28;19912;-77
2024/02/23 00:04:12;;;;;;;;;;;256.80;2252.80;;;;;;5103583;28;20002;-76
2024/02/23 00:06:38;;;;;;;;;;;256.90;2252.80;;;;;;5102292;28;19950;-77
2024/02/23 00:09:04;;;;;;;;;;;256.80;2252.80;;;;;;5111600;28;19996;-78
2024/02/23 00:11:30;;;;;;;;;;;256.70;2252.80;;;;;;5086657;28;19915;-78
2024/02/23 00:13:55;;;;;;;;;;;256.70;2252.80;;;;;;5100164;28;19912;-77
2024/02/23 00:16:21;;;;;;;;;;;256.70;2252.80;;;;;;5085543;28;19990;-77
2024/02/23 00:18:47;;;;;;;;;;;256.70;2252.80;;;;;;5102700;28;19915;-77
2024/02/23 00:21:12;;;;;;;;;;;256.70;2252.80;;;;;;5081502;28;19914;-78
2024/02/23 00:23:38;;;;;;;;;;;256.70;2252.80;;;;;;5081134;28;20263;-78
2024/02/23 00:26:03;;;;;;;;;;;256.70;2252.80;;;;;;5107741;28;19919;-78
2024/02/23 00:28:29;;;;;;;;;;;256.80;2252.80;;;;;;5095006;28;19920;-78
2024/02/23 00:30:55;;;;;;;;;;;256.70;2252.80;;;;;;5085792;28;19977;-77
2024/02/23 00:33:20;;;;;;;;;;;256.70;2252.80;;;;;;5086718;28;19912;-78
2024/02/23 00:35:46;;;;;;;;;;;256.70;2252.80;;;;;;5088951;28;20424;-77
2024/02/23 00:38:11;;;;;;;;;;;256.70;2252.80;;;;;;5100704;28;19928;-78
2024/02/23 00:40:38;;;;;;;;;;;256.70;2252.80;;;;;;5084741;28;19947;-77
2024/02/23 00:43:04;;;;;;;;;;;256.80;2252.80;;;;;;5103023;28;19943;-80
2024/02/23 00:45:29;;;;;;;;;;;256.80;2252.80;;;;;;5105344;28;20007;-80
2024/02/23 00:47:56;;;;;;;;;;;256.80;2252.80;;;;;;5085612;28;19951;-78
2024/02/23 00:50:25;;;;;;;;;;;256.80;2252.80;;;;;;5088132;28;19915;-77
2024/02/23 00:52:52;;;;;;;;;;;281.70;2278.40;;;;;;5087495;28;19994;-77
2024/02/23 00:55:17;;;;;;;;;;;256.80;2252.80;;;;;;5082852;28;19995;-77
2024/02/23 00:57:43;;;;;;;;;;;256.80;2252.80;;;;;;5090120;28;20041;-77
2024/02/23 01:00:09;;;;;;;;;;;256.80;2252.80;;;;;;5103286;28;19926;-77
2024/02/23 01:02:34;;;;;;;;;;;256.80;2252.80;;;;;;5102632;28;19919;-77
2024/02/23 01:05:00;;;;;;;;;;;256.80;2252.80;;;;;;5104143;28;19915;-77
2024/02/23 01:07:26;;;;;;;;;;;256.80;2252.80;;;;;;5100329;28;20327;-78
2024/02/23 01:09:51;;;;;;;;;;;256.80;2252.80;;;;;;5093048;28;19913;-77
2024/02/23 01:12:17;;;;;;;;;;;256.70;2252.80;;;;;;5084813;28;19912;-78
2024/02/23 01:14:43;;;;;;;;;;;256.70;2252.80;;;;;;5100102;28;19912;-78
2024/02/23 01:17:08;;;;;;;;;;;256.70;2252.80;;;;;;5090811;28;20439;-77
2024/02/23 01:19:34;;;;;;;;;;;256.70;2252.80;;;;;;5095138;28;19915;-78
2024/02/23 01:22:00;;;;;;;;;;;256.70;2252.80;;;;;;5116350;28;19950;-77
2024/02/23 01:24:27;;;;;;;;;;;256.70;2252.80;;;;;;5111397;28;20003;-78
2024/02/23 01:26:54;;;;;;;;;;;256.60;2252.80;;;;;;5097737;28;19912;-78
2024/02/23 01:29:20;;;;;;;;;;;256.70;2252.80;;;;;;5097694;28;20363;-77
2024/02/23 01:31:45;;;;;;;;;;;256.70;2252.80;;;;;;5097768;28;19934;-78
2024/02/23 01:34:11;;;;;;;;;;;256.70;2252.80;;;;;;5097623;28;19908;-78
2024/02/23 01:36:38;;;;;;;;;;;256.70;2252.80;;;;;;5097419;28;20275;-78
2024/02/23 01:39:04;;;;;;;;;;;256.70;2252.80;;;;;;5115704;28;19915;-78
2024/02/23 01:41:30;;;;;;;;;;;256.70;2252.80;;;;;;5097087;28;19908;-77
2024/02/23 01:43:55;;;;;;;;;;;256.70;2252.80;;;;;;5097623;28;19907;-79
2024/02/23 01:46:21;;;;;;;;;;;256.70;2252.80;;;;;;5097070;28;19998;-77
2024/02/23 01:48:47;;;;;;;;;;;256.60;2252.80;;;;;;5097389;28;19908;-77
2024/02/23 01:51:12;;;;;;;;;;;256.60;2252.80;;;;;;5097093;28;19991;-78
2024/02/23 01:53:38;;;;;;;;;;;256.60;2252.80;;;;;;5097290;28;19973;-77
2024/02/23 01:56:04;;;;;;;;;;;256.60;2252.80;;;;;;5114970;28;19920;-80
2024/02/23 01:58:30;;;;;;;;;;;256.60;2252.80;;;;;;5096985;28;19920;-78
2024/02/23 02:00:56;;;;;;;;;;;256.60;2252.80;;;;;;5097393;28;19959;-77
2024/02/23 02:03:22;;;;;;;;;;;256.60;2252.80;;;;;;5096860;28;19908;-79
2024/02/23 02:05:49;;;;;;;;;;;256.60;2252.80;;;;;;5084233;28;19915;-77
2024/02/23 02:08:15;;;;;;;;;;;256.60;2252.80;;;;;;5114481;28;19961;-77
2024/02/23 02:10:42;;;;;;;;;;;256.50;2252.80;;;;;;5096727;28;19908;-77
2024/02/23 02:13:08;;;;;;;;;;;256.50;2252.80;;;;;;5115532;28;20309;-77
2024/02/23 02:15:34;;;;;;;;;;;256.50;2252.80;;;;;;5115076;28;19915;-77
2024/02/23 02:17:59;;;;;;;;;;;256.60;2252.80;;;;;;5095930;28;19916;-77
2024/02/23 02:20:28;;;;;;;;;;;256.50;2252.80;;;;;;5115073;28;20260;-77
2024/02/23 02:22:54;;;;;;;;;;;256.60;2252.80;;;;;;5114750;28;19970;-77
2024/02/23 02:25:19;;;;;;;;;;;256.50;2252.80;;;;;;5114584;28;20370;-77
2024/02/23 02:27:45;;;;;;;;;;;256.50;2252.80;;;;;;5114753;28;19947;-78
2024/02/23 02:30:11;;;;;;;;;;;256.50;2252.80;;;;;;5096581;28;20359;-80
2024/02/23 02:32:37;;;;;;;;;;;256.50;2252.80;;;;;;5096392;28;19908;-78
2024/02/23 02:35:02;;;;;;;;;;;256.50;2252.80;;;;;;5114949;28;19919;-77
2024/02/23 02:37:28;;;;;;;;;;;256.50;2252.80;;;;;;5114674;28;19936;-78
2024/02/23 02:39:53;;;;;;;;;;;256.50;2252.80;;;;;;5114250;28;19908;-77
2024/02/23 02:42:19;;;;;;;;;;;256.60;2252.80;;;;;;5096364;28;19915;-77
2024/02/23 02:44:45;;;;;;;;;;;256.60;2252.80;;;;;;5096485;28;20002;-78
2024/02/23 02:47:10;;;;;;;;;;;256.60;2252.80;;;;;;5114067;28;19915;-77
2024/02/23 02:49:36;;;;;;;;;;;256.60;2252.80;;;;;;5114531;28;20236;-78
2024/02/23 02:52:01;;;;;;;;;;;256.70;2252.80;;;;;;5114089;28;20401;-77
2024/02/23 02:54:27;;;;;;;;;;;256.60;2252.80;;;;;;5113784;28;19908;-77
2024/02/23 02:56:54;;;;;;;;;;;256.70;2252.80;;;;;;5113817;28;19927;-77
2024/02/23 02:59:20;;;;;;;;;;;256.70;2252.80;;;;;;5096373;28;19938;-77
2024/02/23 03:01:46;;;;;;;;;;;256.70;2252.80;;;;;;5096103;28;19915;-77
2024/02/23 03:04:12;;;;;;;;;;;256.70;2252.80;;;;;;5114429;28;20011;-78
2024/02/23 03:06:38;;;;;;;;;;;256.70;2252.80;;;;;;5114139;28;19916;-77
2024/02/23 03:09:04;;;;;;;;;;;256.70;2252.80;;;;;;5114061;28;20355;-78
2024/02/23 03:11:30;;;;;;;;;;;256.70;2252.80;;;;;;5114074;28;19908;-77
2024/02/23 03:13:56;;;;;;;;;;;256.70;2252.80;;;;;;5114398;28;19915;-79
2024/02/23 03:16:25;;;;;;;;;;;256.70;2252.80;;;;;;5114143;28;20404;-77
2024/02/23 03:18:51;;;;;;;;;;;256.70;2252.80;;;;;;5113964;28;19916;-77
2024/02/23 03:21:17;;;;;;;;;;;256.70;2252.80;;;;;;5114377;28;20002;-80
2024/02/23 03:23:42;;;;;;;;;;;256.80;2252.80;;;;;;5113646;28;19912;-77
2024/02/23 03:26:08;;;;;;;;;;;256.80;2252.80;;;;;;5114040;28;19919;-77
2024/02/23 03:28:34;;;;;;;;;;;256.80;2252.80;;;;;;5113988;28;19954;-79
2024/02/23 03:31:02;;;;;;;;;;;256.70;2252.80;;;;;;5099290;28;19912;-77
2024/02/23 03:33:28;;;;;;;;;;;256.80;2252.80;;;;;;5118304;28;19914;-78
2024/02/23 03:35:55;;;;;;;;;;;256.70;2252.80;;;;;;5118346;28;19908;-77
2024/02/23 03:38:21;;;;;;;;;;;256.70;2252.80;;;;;;5099678;28;19921;-78
2024/02/23 03:40:46;;;;;;;;;;;256.70;2252.80;;;;;;5117967;28;19952;-77
2024/02/23 03:43:12;;;;;;;;;;;256.70;2252.80;;;;;;5118059;28;19907;-77
2024/02/23 03:45:37;;;;;;;;;;;256.70;2252.80;;;;;;5118048;28;19915;-77
2024/02/23 03:48:06;;;;;;;;;;;256.70;2252.80;;;;;;5117861;28;19911;-78
2024/02/23 03:50:31;;;;;;;;;;;256.80;2252.80;;;;;;5099888;28;19907;-78
2024/02/23 03:52:57;;;;;;;;;;;256.80;2252.80;;;;;;5099986;28;20373;-81
2024/02/23 03:55:23;;;;;;;;;;;256.80;2252.80;;;;;;5099290;28;19916;-79
2024/02/23 03:57:48;;;;;;;;;;;256.80;2252.80;;;;;;5117522;28;19920;-78
2024/02/23 04:00:14;;;;;;;;;;;256.70;2252.80;;;;;;5099746;28;19914;-78
2024/02/23 04:02:40;;;;;;;;;;;256.70;2252.80;;;;;;5099523;28;19911;-77
2024/02/23 04:05:06;;;;;;;;;;;256.70;2252.80;;;;;;5117909;28;19915;-78
2024/02/23 04:07:31;;;;;;;;;;;256.70;2252.80;;;;;;5099204;28;19908;-75
2024/02/23 04:09:57;;;;;;;;;;;256.70;2252.80;;;;;;5099282;28;20006;-74
2024/02/23 04:12:23;;;;;;;;;;;256.70;2252.80;;;;;;5117170;28;20483;-74
2024/02/23 04:14:48;;;;;;;;;;;256.70;2252.80;;;;;;5117408;28;19915;-78
2024/02/23 04:17:14;;;;;;;;;;;256.80;2252.80;;;;;;5099003;28;19954;-77
2024/02/23 04:19:40;;;;;;;;;;;256.80;2252.80;;;;;;5099056;28;19933;-77
2024/02/23 04:22:08;;;;;;;;;;;256.80;2252.80;;;;;;5117342;28;19912;-78
2024/02/23 04:24:34;;;;;;;;;;;256.80;2252.80;;;;;;5099104;28;20274;-78
2024/02/23 04:26:59;;;;;;;;;;;256.80;2252.80;;;;;;5098726;28;19919;-77
2024/02/23 04:29:25;;;;;;;;;;;256.90;2252.80;;;;;;5099099;28;19919;-77
2024/02/23 04:31:51;;;;;;;;;;;256.80;2252.80;;;;;;5091989;28;20005;-79
2024/02/23 04:34:16;;;;;;;;;;;256.80;2252.80;;;;;;5085377;28;19994;-78
2024/02/23 04:36:42;;;;;;;;;;;256.80;2252.80;;;;;;5085772;28;19995;-77
2024/02/23 04:39:08;;;;;;;;;;;256.90;2252.80;;;;;;5081228;28;20360;-77
2024/02/23 04:41:33;;;;;;;;;;;256.80;2252.80;;;;;;5080243;28;19912;-77
2024/02/23 04:44:00;;;;;;;;;;;256.80;2252.80;;;;;;5082697;28;19914;-78
2024/02/23 04:46:26;;;;;;;;;;;256.90;2252.80;;;;;;5101168;28;19961;-78
2024/02/23 04:48:52;;;;;;;;;;;256.90;2252.80;;;;;;5091905;28;19912;-77
2024/02/23 04:51:18;;;;;;;;;;;256.90;2252.80;;;;;;5094552;28;19908;-77
2024/02/23 04:53:44;;;;;;;;;;;256.90;2252.80;;;;;;5106313;28;19912;-77
2024/02/23 04:56:09;;;;;;;;;;;256.90;2252.80;;;;;;5076352;28;19926;-76
2024/02/23 04:58:36;;;;;;;;;;;256.90;2252.80;;;;;;5044189;28;19979;-79
2024/02/23 05:01:03;;;;;;;;;;;256.90;2252.80;;;;;;5073668;28;19912;-80
2024/02/23 05:03:28;;;;;;;;;;;256.90;2252.80;;;;;;5075097;28;19913;-78
2024/02/23 05:05:54;;;;;;;;;;;256.90;2252.80;;;;;;5065928;28;19991;-77
2024/02/23 05:08:20;;;;;;;;;;;256.80;2252.80;;;;;;5056756;28;19909;-78
2024/02/23 05:10:46;;;;;;;;;;;256.70;2252.80;;;;;;5043781;28;19908;-78
2024/02/23 05:13:12;;;;;;;;;;;256.90;2252.80;;;;;;5066999;28;19915;-77
2024/02/23 05:15:37;;;;;;;;;;;256.90;2252.80;;;;;;5074028;28;20268;-76
2024/02/23 05:18:03;;;;;;;;;;;256.80;2252.80;;;;;;5058869;28;19921;-78
2024/02/23 05:20:29;;;;;;;;;;;256.90;2252.80;;;;;;5044684;28;19991;-78
2024/02/23 05:22:54;;;;;;;;;;;256.90;2252.80;;;;;;5075362;28;19909;-78
2024/02/23 05:25:20;;;;;;;;;;;256.90;2252.80;;;;;;5063148;28;19917;-78
2024/02/23 05:27:45;;;;;;;;;;;256.90;2252.80;;;;;;5083089;28;19913;-79
2024/02/23 05:30:11;;;;;;;;;;;256.90;2252.80;;;;;;5067743;28;19909;-78
2024/02/23 05:32:37;;;;;;;;;;;256.80;2252.80;;;;;;5059956;28;19908;-81
2024/02/23 05:35:03;;;;;;;;;;;256.80;2252.80;;;;;;5063926;28;20062;-77
2024/02/23 05:37:29;;;;;;;;;;;256.80;2252.80;;;;;;5043697;28;19959;-77
2024/02/23 05:39:55;;;;;;;;;;;256.80;2252.80;;;;;;5063603;28;19962;-78
2024/02/23 05:42:20;;;;;;;;;;;256.80;2252.80;;;;;;5063850;28;20003;-77
2024/02/23 05:44:46;;;;;;;;;;;256.80;2252.80;;;;;;5048169;28;19908;-77
2024/02/23 05:47:13;;;;;;;;;;;256.80;2252.80;;;;;;5058783;28;19912;-77
2024/02/23 05:49:39;;;;;;;;;;;256.70;2252.80;;;;;;5072949;28;19909;-78
2024/02/23 05:52:04;;;;;;;;;;;256.70;2252.80;;;;;;5043103;28;19915;-77
2024/02/23 05:54:30;;;;;;;;;;;256.70;2252.80;;;;;;5041982;28;19915;-77
2024/02/23 05:56:56;;;;;;;;;;;256.70;2252.80;;;;;;5076691;28;19920;-79
2024/02/23 05:59:21;;;;;;;;;;;256.70;2252.80;;;;;;5067809;28;19919;-76
2024/02/23 06:01:47;;;;;;;;;;;256.70;2252.80;;;;;;5074813;28;19908;-77
2024/02/23 06:04:13;;;;;;;;;;;256.70;2252.80;;;;;;5080841;28;19912;-77
2024/02/23 06:06:41;;;;;;;;;;;256.80;2252.80;;;;;;5074305;28;20276;-77
2024/02/23 06:09:06;;;;;;;;;;;256.80;2252.80;;;;;;5066031;28;19953;-77
2024/02/23 06:11:32;;;;;;;;;;;256.80;2252.80;;;;;;5080401;28;19908;-77
2024/02/23 06:13:57;;;;;;;;;;;256.70;2252.80;;;;;;5089468;28;19913;-76
2024/02/23 06:16:23;;;;;;;;;;;256.70;2252.80;;;;;;5095903;28;20009;-76
2024/02/23 06:18:50;;;;;;;;;;;256.80;2252.80;;;;;;5082396;28;19920;-76
2024/02/23 06:21:17;;;;;;;;;;;256.80;2252.80;;;;;;5079827;28;19908;-76
2024/02/23 06:23:43;;;;;;;;;;;256.80;2252.80;;;;;;5063186;28;19954;-77
2024/02/23 06:26:09;;;;;;;;;;;256.80;2252.80;;;;;;5076345;28;20237;-76
2024/02/23 06:28:34;;;;;;;;;;;256.80;2252.80;;;;;;5080652;28;19973;-77
2024/02/23 06:31:00;;;;;;;;;;;256.80;2252.80;;;;;;5080242;28;20356;-73
2024/02/23 06:33:26;;;;;;;;;;;256.90;2252.80;;;;;;5087983;28;20271;-75
2024/02/23 06:35:52;;;;;;;;;;;256.90;2252.80;;;;;;5102138;28;19961;-76
2024/02/23 06:38:18;;;;;;;;;;;256.90;2252.80;;;;;;5079370;28;20376;-75
2024/02/23 06:40:43;;;;;;;;;;;256.90;2252.80;;;;;;5086971;28;19912;-77
2024/02/23 06:43:09;;;;;;;;;;;281.60;2278.40;;;;;;5083079;28;20003;-76
2024/02/23 06:45:35;;;;;;;;;;;281.60;2278.40;;;;;;5083613;28;19909;-78
2024/02/23 06:48:00;;;;;;;;;;;281.70;2278.40;;;;;;5082504;28;19915;-76
2024/02/23 06:50:26;;;;;;;;;;;281.70;2278.40;;;;;;5090451;28;20376;-76
2024/02/23 06:52:51;;;;;;;;;;;281.70;2278.40;;;;;;5084918;28;19909;-77
2024/02/23 06:55:17;;;;;;;;;;;281.70;2278.40;;;;;;5060489;28;19916;-77
2024/02/23 06:57:43;;;;;;;;;;;281.80;2278.40;;;;;;5081078;28;19977;-77
2024/02/23 07:00:08;;;;;;;;;;;281.80;2278.40;;;;;;5079086;28;19916;-75
2024/02/23 07:02:36;;;;;;;;;;;281.80;2278.40;;;;;;5086445;28;19940;-76
2024/02/23 07:05:04;;;;;;;;;;;281.90;2278.40;;;;;;5080175;28;20356;-75
2024/02/23 07:07:33;;;;;;;;;;;282.00;2278.40;;;;;;5082140;28;19919;-76
2024/02/23 07:09:59;;;;;;;;;;;282.00;2278.40;;;;;;5087128;28;19908;-76
2024/02/23 07:12:27;;;;;;;;;;;282.10;2278.40;;;;;;5066694;28;19912;-75
2024/02/23 07:14:52;;;;;;;;;;;282.20;2278.40;;;;;;5080170;28;20387;-76
2024/02/23 07:17:18;;;;;;;;;;;282.20;2278.40;;;;;;5075734;28;19924;-78
2024/02/23 07:19:44;;;;;;;;;;;282.50;2278.40;;;;;;5064421;28;19920;-76
2024/02/23 07:22:10;;;;;;;;;;;282.30;2278.40;;;;;;5079796;28;20295;-75
2024/02/23 07:24:39;;;;;;;;;;;282.30;2278.40;;;;;;5086571;28;19966;-76
2024/02/23 07:27:05;;;;;;;;;;;282.50;2278.40;;;;;;5075247;28;19914;-76
2024/02/23 07:29:30;;;;;;;;;;;282.40;2278.40;;;;;;5093672;28;19985;-78
2024/02/23 07:31:56;;;;;;;;;;;282.40;2278.40;;;;;;5099672;28;19913;-78
2024/02/23 07:34:22;;;;;;;;;;;282.50;2278.40;;;;;;5058487;28;19913;-77
2024/02/23 07:36:48;;;;;;;;;;;282.50;2278.40;;;;;;5072781;28;20356;-77
2024/02/23 07:39:13;;;;;;;;;;;282.40;2278.40;;;;;;5097364;28;19928;-77
2024/02/23 07:41:39;;;;;;;;;;;282.40;2278.40;;;;;;5079732;28;20291;-77
2024/02/23 07:44:04;;;;;;;;;;;282.30;2278.40;;;;;;5077500;28;19908;-77
2024/02/23 07:46:30;;;;;;;;;;;282.30;2278.40;;;;;;5087470;28;19912;-77
2024/02/23 07:48:56;;;;;;;;;;;282.30;2278.40;;;;;;5069344;28;19999;-76
2024/02/23 07:51:21;;;;;;;;;;;282.20;2278.40;;;;;;5084759;28;20306;-78
2024/02/23 07:53:47;;;;;;;;;;;282.30;2278.40;;;;;;5081659;28;19962;-77
2024/02/23 07:56:12;;;;;;;;;;;282.20;2278.40;;;;;;5094861;28;19924;-77
2024/02/23 07:58:38;;;;;;;;;;;282.20;2278.40;;;;;;5094419;28;19947;-77
2024/02/23 08:01:04;;;;;;;;;;;282.30;2278.40;;;;;;5083118;28;19938;-79
2024/02/23 08:03:29;;;;;;;;;;;282.30;2278.40;;;;;;5086777;28;20280;-79
2024/02/23 08:05:55;;;;;;;;;;;282.10;2278.40;;;;;;5071134;28;19915;-82
2024/02/23 08:08:22;;;;;;;;;;;282.30;2278.40;;;;;;5068599;28;20351;-78
2024/02/23 08:10:48;;;;;;;;;;;282.30;2278.40;;;;;;5081177;28;19908;-77
2024/02/23 08:13:14;;;;;;;;;;;282.40;2278.40;;;;;;5089130;28;19937;-78
2024/02/23 08:15:39;;;;;;;;;;;282.40;2278.40;;;;;;5098924;28;19908;-78
2024/02/23 08:18:05;;;;;;;;;;;282.50;2278.40;;;;;;5094284;28;19917;-78
2024/02/23 08:20:31;;;;;;;;;;;282.50;2278.40;;;;;;5067868;28;19909;-77
2024/02/23 08:22:56;;;;;;;;;;;307.30;2304.00;;;;;;5099645;28;19912;-76
2024/02/23 08:25:22;;;;;;;;;;;307.30;2304.00;;;;;;5067462;28;19959;-76
2024/02/23 08:27:48;;;;;;;;;;;307.30;2304.00;;;;;;5090471;28;19916;-74
2024/02/23 08:30:14;;;;;;;;;;;307.40;2304.00;;;;;;5079199;28;19920;-76
2024/02/23 08:32:40;;;;;;;;;;;307.40;2304.00;;;;;;5088098;28;19908;-76
2024/02/23 08:35:06;;;;;;;;;;;307.50;2304.00;;;;;;5071715;28;19915;-76
2024/02/23 08:37:32;;;;;;;;;;;307.80;2304.00;;;;;;5070891;28;19924;-77
2024/02/23 08:39:58;;;;;;;;;;;307.70;2304.00;;;;;;5089827;28;19935;-76
2024/02/23 08:42:23;;;;;;;;;;;307.80;2304.00;;;;;;5074962;28;19965;-78
2024/02/23 08:44:49;;;;;;;;;;;308.00;2304.00;;;;;;5101036;28;19909;-78
2024/02/23 08:47:15;;;;;;;;;;;332.80;2329.60;;;;;;5067275;28;19908;-78
2024/02/23 08:49:40;;;;;;;;;;;332.90;2329.60;;;;;;5087868;28;19970;-77
2024/02/23 08:52:06;;;;;;;;;;;333.00;2329.60;;;;;;5067919;28;20364;-77
2024/02/23 08:54:31;;;;;;;;;;;333.20;2329.60;;;;;;5066710;28;19909;-78
2024/02/23 08:56:57;;;;;;;;;;;333.30;2329.60;;;;;;5071957;28;19924;-77
2024/02/23 08:59:23;;;;;;;;;;;333.40;2329.60;;;;;;5082944;28;20403;-77
2024/02/23 09:01:48;;;;;;;;;;;333.50;2329.60;;;;;;5086468;28;19916;-81
2024/02/23 09:04:14;;;;;;;;;;;333.50;2329.60;;;;;;5069246;28;19951;-79
2024/02/23 09:06:39;;;;;;;;;;;333.60;2329.60;;;;;;5084024;28;19919;-79
2024/02/23 09:09:05;;;;;;;;;;;333.70;2329.60;;;;;;5063031;28;20406;-79
2024/02/23 09:11:31;;;;;;;;;;;358.40;2329.60;;;;;;5071562;28;19988;-82
2024/02/23 09:13:56;;;;;;;;;;;358.50;2329.60;;;;;;5063794;28;19909;-81
2024/02/23 09:16:24;;;;;;;;;;;358.60;2329.60;;;;;;5067128;28;19962;-78
2024/02/23 09:18:50;;;;;;;;;;;358.60;2278.40;;;;;;5074145;28;19964;-78
2024/02/23 09:21:16;;;;;;;;;;;358.70;2329.60;;;;;;5078902;28;19908;-75
2024/02/23 09:23:41;;;;;;;;;;;358.70;2329.60;;;;;;5084282;28;19936;-76
2024/02/23 09:26:13;;;;;;;;;;;358.70;2304.00;;;;;;5103114;28;19966;-83
2024/02/23 09:28:41;;;;;;;;;;;358.70;2304.00;;;;;;5064890;28;20527;-88
2024/02/23 09:31:07;;;;;;;;;;;358.70;2278.40;;;;;;5070172;28;19909;-74
2024/02/23 09:33:33;;;;;;;;;;;358.80;2304.00;;;;;;5081539;28;19908;-75
2024/02/23 09:35:58;;;;;;;;;;;358.80;2329.60;;;;;;5079148;28;20356;-75
2024/02/23 09:38:24;;;;;;;;;;;358.80;2304.00;;;;;;5100237;28;19970;-76
2024/02/23 09:40:51;;;;;;;;;;;358.90;2329.60;;;;;;5081698;28;19951;-75
2024/02/23 09:43:17;;;;;;;;;;;358.90;2329.60;;;;;;5085190;28;19912;-75
2024/02/23 09:45:43;;;;;;;;;;;358.90;2329.60;;;;;;5084684;28;19970;-75
2024/02/23 09:48:10;;;;;;;;;;;358.90;2329.60;;;;;;5083458;28;20442;-75
2024/02/23 09:50:37;;;;;;;;;;;358.90;2304.00;;;;;;5087326;28;20439;-77
2024/02/23 09:53:04;;;;;;;;;;;358.80;2329.60;;;;;;5084378;28;20352;-75
2024/02/23 09:55:30;;;;;;;;;;;358.80;2329.60;;;;;;5089422;28;19919;-76
2024/02/23 09:57:57;;;;;;;;;;;358.80;2304.00;;;;;;5077873;28;19920;-76
2024/02/23 10:00:23;;;;;;;;;;;358.80;2329.60;;;;;;5079931;28;19909;-77
2024/02/23 10:02:50;;;;;;;;;;;358.80;2329.60;;;;;;5082409;28;19908;-76
2024/02/23 10:05:17;;;;;;;;;;;358.80;2304.00;;;;;;5063580;28;19908;-77
2024/02/23 10:07:44;;;;;;;;;;;358.80;2329.60;;;;;;5083886;28;19908;-76
2024/02/23 10:10:10;;;;;;;;;;;358.80;2329.60;;;;;;5067200;28;19974;-77
2024/02/23 10:12:36;;;;;;;;;;;358.80;2304.00;;;;;;5090586;28;19912;-75
2024/02/23 10:15:06;;;;;;;;;;;358.80;2304.00;;;;;;5080045;28;19953;-76
2024/02/23 10:17:32;;;;;;;;;;;358.80;2329.60;;;;;;5093098;28;19920;-76
2024/02/23 10:19:58;;;;;;;;;;;358.50;2329.60;;;;;;5083446;28;19998;-84
2024/02/23 10:22:25;;;;;;;;;;;358.70;2329.60;;;;;;5086503;28;20390;-78
2024/02/23 10:24:51;;;;;;;;;;;358.70;2329.60;;;;;;5090862;28;19927;-78
2024/02/23 10:27:16;;;;;;;;;;;358.70;2329.60;;;;;;5062924;28;20292;-79
2024/02/23 10:29:42;;;;;;;;;;;358.70;2329.60;;;;;;5069770;28;19909;-77
2024/02/23 10:32:09;;;;;;;;;;;358.70;2329.60;;;;;;5065022;28;20007;-75
2024/02/23 10:34:36;;;;;;;;;;;358.70;2329.60;;;;;;5087412;28;19954;-84
2024/02/23 10:37:04;;;;;;;;;;;358.70;2329.60;;;;;;5080468;28;19963;-78
2024/02/23 10:39:30;;;;;;;;;;;358.80;2329.60;;;;;;5070970;28;19999;-77
2024/02/23 10:42:02;;;;;;;;;;;358.70;2329.60;;;;;;5056562;28;19912;-76
2024/02/23 10:44:28;;;;;;;;;;;358.80;2329.60;;;;;;5065502;28;19909;-77
2024/02/23 10:46:54;;;;;;;;;;;358.80;2329.60;;;;;;5083196;28;19916;-78
2024/02/23 10:49:22;;;;;;;;;;;358.90;2329.60;;;;;;5069054;28;19915;-77
2024/02/23 10:51:49;;;;;;;;;;;358.90;2329.60;;;;;;5063950;28;19977;-79
2024/02/23 10:54:17;;;;;;;;;;;358.90;2329.60;;;;;;5095629;28;19908;-78
2024/02/23 10:56:43;;;;;;;;;;;359.00;2329.60;;;;;;5098004;28;19920;-79
2024/02/23 10:59:10;;;;;;;;;;;359.00;2329.60;;;;;;5067282;28;20271;-78
2024/02/23 11:01:39;;;;;;;;;;;359.00;2329.60;;;;;;5056748;28;19992;-77
2024/02/23 11:04:05;;;;;;;;;;;359.00;2329.60;;;;;;5065124;28;19924;-81
2024/02/23 11:06:33;;;;;;;;;;;359.10;2329.60;;;;;;5065352;28;19951;-76
2024/02/23 11:09:08;;;;;;;;;;;359.10;2329.60;;;;;;5078692;28;19909;-77
2024/02/23 11:11:34;;;;;;;;;;;359.20;2329.60;;;;;;5068903;28;19974;-78
2024/02/23 11:14:03;;;;;;;;;;;359.30;2329.60;;;;;;5106117;28;19947;-77
2024/02/23 11:16:31;;;;;;;;;;;384.00;2329.60;;;;;;5068514;28;19969;-77
2024/02/23 11:19:09;;;;;;;;;;;384.10;2329.60;;;;;;5079719;28;20007;-78
2024/02/23 11:21:38;;;;;;;;;;;384.20;2278.40;;;;;;5059975;28;19912;-77
2024/02/23 11:24:04;;;;;;;;;;;384.20;2252.80;;;;;;5065788;28;19938;-77
2024/02/23 11:26:30;;;;;;;;;;;384.40;2278.40;;;;;;5071440;28;19917;-81
2024/02/23 11:28:56;;;;;;;;;;;384.10;2278.40;;;;;;5071255;28;19934;-78
2024/02/23 11:31:23;;;;;;;;;;;384.50;2227.20;;;;;;5085901;28;20015;-79
2024/02/23 11:33:52;;;;;;;;;;;384.50;2201.60;;;;;;5062249;28;19920;-79
2024/02/23 11:36:24;;;;;;;;;;;384.50;2227.20;;;;;;5081324;28;19931;-78
2024/02/23 11:38:56;;;;;;;;;;;384.60;2201.60;;;;;;5095434;28;19952;-81
2024/02/23 11:41:25;;;;;;;;;;;384.70;2124.80;;;;;;5066591;28;19913;-78
2024/02/23 11:43:51;;;;;;;;;;;384.70;2124.80;;;;;;5066598;28;19977;-78
2024/02/23 11:46:17;;;;;;;;;;;384.90;2176.00;;;;;;5083591;28;19919;-77
2024/02/23 11:48:44;;;;;;;;;;;409.60;2176.00;;;;;;5056486;28;19908;-78
2024/02/23 11:51:09;;;;;;;;;;;409.70;2201.60;;;;;;5067458;28;19912;-78
2024/02/23 11:53:37;;;;;;;;;;;409.60;2124.80;;;;;;5069177;28;19923;-77
2024/02/23 11:56:04;;;;;;;;;;;409.60;2099.20;;;;;;5071497;28;20002;-78
2024/02/23 11:58:30;;;;;;;;;;;384.90;2099.20;;;;;;5096515;28;19928;-79
2024/02/23 12:00:56;;;;;;;;;;;409.60;2176.00;;;;;;5062362;28;19909;-78
2024/02/23 12:03:22;;;;;;;;;;;409.60;2150.40;;;;;;5074353;28;20005;-79
2024/02/23 12:05:49;;;;;;;;;;;409.70;2150.40;;;;;;5067654;28;19951;-77
2024/02/23 12:08:15;;;;;;;;;;;409.70;2150.40;;;;;;5087055;28;20396;-78
2024/02/23 12:10:41;;;;;;;;;;;409.70;2099.20;;;;;;5099584;28;19915;-81
2024/02/23 12:13:07;;;;;;;;;;;409.70;2073.60;;;;;;5070656;28;20344;-77
2024/02/23 12:15:33;;;;;;;;;;;409.70;2099.20;;;;;;5064931;28;20351;-77
2024/02/23 12:18:00;;;;;;;;;;;409.70;2073.60;;;;;;5080548;28;20015;-78
2024/02/23 12:20:25;;;;;;;;;;;409.70;2048.00;;;;;;5101940;28;19915;-79
2024/02/23 12:22:54;;;;;;;;;;;409.70;2073.60;;;;;;5080207;28;19913;-78
2024/02/23 12:25:20;;;;;;;;;;;409.70;2073.60;;;;;;5106924;28;19931;-78
2024/02/23 12:27:45;;;;;;;;;;;409.70;2124.80;;;;;;5070498;28;20407;-77
2024/02/23 12:30:15;;;;;;;;;;;409.70;2124.80;;;;;;5100622;28;19908;-77
2024/02/23 12:32:41;;;;;;;;;;;409.70;2099.20;;;;;;5060467;28;19909;-76
2024/02/23 12:35:06;;;;;;;;;;;409.70;2099.20;;;;;;5070276;28;19909;-77
2024/02/23 12:37:35;;;;;;;;;;;409.70;2022.40;;;;;;5097456;28;19912;-78
2024/02/23 12:40:00;;;;;;;;;;;409.70;2022.40;;;;;;5087891;28;19915;-81
2024/02/23 12:42:26;;;;;;;;;;;409.70;2048.00;;;;;;5097563;28;19916;-81
2024/02/23 12:44:52;;;;;;;;;;;409.70;2073.60;;;;;;5089985;28;19908;-77
2024/02/23 12:47:17;;;;;;;;;;;409.80;2048.00;;;;;;5102199;28;19912;-79
2024/02/23 12:49:43;;;;;;;;;;;409.90;2048.00;;;;;;5075513;28;20344;-78
2024/02/23 12:52:08;;;;;;;;;;;409.90;2048.00;;;;;;5091425;28;19955;-82
2024/02/23 12:54:34;;;;;;;;;;;409.80;2022.40;;;;;;5091558;28;20382;-78
2024/02/23 12:57:00;;;;;;;;;;;410.00;1996.80;;;;;;5101682;28;20275;-79
2024/02/23 12:59:25;;;;;;;;;;;410.10;2022.40;;;;;;5072531;28;20382;-78
2024/02/23 13:01:51;;;;;;;;;;;410.00;1996.80;;;;;;5069288;28;19915;-78
2024/02/23 13:04:17;;;;;;;;;;;410.20;1996.80;;;;;;5085421;28;19915;-77
2024/02/23 13:06:43;;;;;;;;;;;410.20;1971.20;;;;;;5083897;28;19923;-78
2024/02/23 13:09:09;;;;;;;;;;;410.40;1945.60;;;;;;5080017;28;19908;-78
2024/02/23 13:11:35;;;;;;;;;;;410.40;1945.60;;;;;;5089323;28;19912;-78
2024/02/23 13:14:01;;;;;;;;;;;435.20;1945.60;;;;;;5073491;28;19983;-77
2024/02/23 13:16:27;;;;;;;;;;;435.20;1945.60;;;;;;5062944;28;19912;-81
2024/02/23 13:18:53;;;;;;;;;;;435.30;1920.00;;;;;;5083609;28;19916;-78
2024/02/23 13:21:19;;;;;;;;;;;435.30;1971.20;;;;;;5101729;28;19908;-81
2024/02/23 13:23:44;;;;;;;;;;;435.30;1945.60;;;;;;5081896;28;19999;-78
2024/02/23 13:26:10;;;;;;;;;;;435.40;1920.00;;;;;;5084865;28;19927;-78
2024/02/23 13:28:36;;;;;;;;;;;435.40;1920.00;;;;;;5066654;28;19927;-77
2024/02/23 13:31:02;;;;;;;;;;;435.40;1894.40;;;;;;5084079;28;20315;-79
2024/02/23 13:33:28;;;;;;;;;;;435.40;1868.80;;;;;;5083588;28;19908;-76
2024/02/23 13:35:54;;;;;;;;;;;435.40;1868.80;;;;;;5078747;28;20367;-79